Portada
METAR-TAF:

METAR-TAF

Aeroports :

Qeshm, Iran

latitud: 26-45-18N, longitud: 055-54-08E, altitud: 12 m

Observació

L'informe es va fer fa 33 minuts, a les 15:00 UTC
Vent 18 kt del Oest/Sud-Oest
Temperatura 32°C
Humitat 63%
Pressió 1006 hPa
Visibilitat: 1500 m

METAR: OIKQ 251500Z 24018KT 1500 DS NSC 32/24 Q1006

Hora: 20:03 (15:33 UTC)


TAF: manca

Observacions i pronòstics meteorològics de més de 4000 aeroports (METAR i TAF).

Les estacions disponibles són els punts grocs i vermells al mapa.

Posi el ratolí al punt desitjat per veure el nom de l'estació.

Feu clic per veure les observacions i els pronòstics meteorològics.

Per canviar el mapa: feu clic els botons verds amb una creu de color negre per apropar; al botó verd amb un guió per allunyar la imatge; o en les fletxes verdes per a mapes adjacents.


METAR-TAF: